Time,TemperatureF,DewpointF,PressureIn,WindDirection,WindDirectionDegrees,WindSpeedMPH,WindSpeedGustMPH,Humidity,HourlyPrecipIn,Conditions,Clouds,dailyrainin,SolarRadiationWatts/m^2,SoftwareType,DateUTC
2013-10-02 00:00:00,57.6,53.1,29.85,SW,221,0.0,0.0,85,0.00,,,0.00,0,Wunderground v.1.15,2013-10-02 04:00:00,
2013-10-02 00:10:00,57.5,53.0,29.85,SW,221,0.0,0.0,85,0.00,,,0.00,0,Wunderground v.1.15,2013-10-02 04:10:00,
2013-10-02 00:20:00,57.2,53.0,29.84,SW,221,0.0,0.0,86,0.00,,,0.00,0,Wunderground v.1.15,2013-10-02 04:20:00,
2013-10-02 00:25:00,57.0,52.9,29.84,SW,221,0.0,0.0,86,0.00,,,0.00,0,Wunderground v.1.15,2013-10-02 04:25:00,
2013-10-02 00:30:00,56.9,52.4,29.84,SW,221,0.0,1.0,85,0.00,,,0.00,0,Wunderground v.1.15,2013-10-02 04:30:00,
2013-10-02 00:40:00,56.6,52.1,29.84,SW,221,0.0,0.0,85,0.00,,,0.00,0,Wunderground v.1.15,2013-10-02 04:40:00,
2013-10-02 00:50:00,56.6,52.1,29.84,South,176,0.0,0.0,85,0.00,,,0.00,0,Wunderground v.1.15,2013-10-02 04:50:00,
2013-10-02 00:55:00,56.5,52.0,29.84,South,181,0.0,2.0,85,0.00,,,0.00,0,Wunderground v.1.15,2013-10-02 04:55:00,
2013-10-02 01:06:00,56.3,51.5,29.84,South,181,0.0,0.0,84,0.00,,,0.00,0,Wunderground v.1.15,2013-10-02 05:06:00,
2013-10-02 01:15:00,56.2,51.4,29.84,South,182,0.0,0.0,84,0.00,,,0.00,0,Wunderground v.1.15,2013-10-02 05:15:00,
2013-10-02 01:20:00,56.0,51.2,29.84,South,182,0.0,0.0,84,0.00,,,0.00,0,Wunderground v.1.15,2013-10-02 05:20:00,
2013-10-02 01:30:00,56.0,51.2,29.85,South,182,0.0,0.0,84,0.00,,,0.00,0,Wunderground v.1.15,2013-10-02 05:30:00,
2013-10-02 01:40:00,55.9,51.1,29.85,South,182,0.0,0.0,84,0.00,,,0.00,0,Wunderground v.1.15,2013-10-02 05:40:00,
2013-10-02 01:45:00,55.9,51.1,29.85,South,182,0.0,0.0,84,0.00,,,0.00,0,Wunderground v.1.15,2013-10-02 05:45:00,
2013-10-02 01:55:00,55.7,50.6,29.85,South,182,0.0,0.0,83,0.00,,,0.00,0,Wunderground v.1.15,2013-10-02 05:55:00,
2013-10-02 02:06:00,55.6,50.5,29.84,South,182,0.0,0.0,83,0.00,,,0.00,0,Wunderground v.1.15,2013-10-02 06:06:00,
2013-10-02 02:15:00,55.6,50.5,29.84,South,182,0.0,0.0,83,0.00,,,0.00,0,Wunderground v.1.15,2013-10-02 06:15:00,
2013-10-02 02:20:00,55.4,50.3,29.84,South,181,0.0,0.0,83,0.00,,,0.00,0,Wunderground v.1.15,2013-10-02 06:20:00,
2013-10-02 02:30:00,55.4,50.3,29.83,South,182,0.0,0.0,83,0.00,,,0.00,0,Wunderground v.1.15,2013-10-02 06:30:00,
2013-10-02 02:40:00,55.3,50.2,29.83,South,182,0.0,0.0,83,0.00,,,0.00,0,Wunderground v.1.15,2013-10-02 06:40:00,
2013-10-02 02:45:00,55.3,50.2,29.83,South,182,0.0,0.0,83,0.00,,,0.00,0,Wunderground v.1.15,2013-10-02 06:45:00,
2013-10-02 02:55:00,55.3,50.2,29.83,South,182,0.0,0.0,83,0.00,,,0.00,0,Wunderground v.1.15,2013-10-02 06:55:00,
2013-10-02 03:10:00,55.3,50.2,29.83,South,182,0.0,0.0,83,0.00,,,0.00,0,Wunderground v.1.15,2013-10-02 07:10:00,
2013-10-02 03:20:00,55.6,50.5,29.83,South,182,0.0,0.0,83,0.00,,,0.00,0,Wunderground v.1.15,2013-10-02 07:20:00,
2013-10-02 03:25:00,55.7,50.6,29.83,South,182,0.0,0.0,83,0.00,,,0.00,0,Wunderground v.1.15,2013-10-02 07:25:00,
2013-10-02 03:35:00,55.7,50.6,29.83,South,182,0.0,0.0,83,0.00,,,0.00,0,Wunderground v.1.15,2013-10-02 07:35:00,
2013-10-02 03:45:00,56.0,50.9,29.83,South,182,0.0,0.0,83,0.00,,,0.00,0,Wunderground v.1.15,2013-10-02 07:45:00,
2013-10-02 03:50:00,56.2,51.1,29.83,South,182,0.0,0.0,83,0.00,,,0.00,0,Wunderground v.1.15,2013-10-02 07:50:00,
2013-10-02 04:00:00,56.3,51.2,29.83,South,182,0.0,0.0,83,0.00,,,0.00,0,Wunderground v.1.15,2013-10-02 08:00:00,
2013-10-02 04:10:00,56.5,51.1,29.83,South,182,0.0,0.0,82,0.00,,,0.00,0,Wunderground v.1.15,2013-10-02 08:10:00,
2013-10-02 04:20:00,56.5,51.4,29.83,South,182,0.0,0.0,83,0.00,,,0.00,0,Wunderground v.1.15,2013-10-02 08:20:00,
2013-10-02 04:25:00,56.5,51.4,29.83,South,182,0.0,0.0,83,0.00,,,0.00,0,Wunderground v.1.15,2013-10-02 08:25:00,
2013-10-02 04:35:00,56.5,51.4,29.83,South,182,0.0,0.0,83,0.00,,,0.00,0,Wunderground v.1.15,2013-10-02 08:35:00,
2013-10-02 04:40:00,56.5,51.4,29.83,South,182,0.0,0.0,83,0.00,,,0.00,0,Wunderground v.1.15,2013-10-02 08:40:00,
2013-10-02 04:50:00,56.3,50.9,29.82,South,182,0.0,0.0,82,0.00,,,0.00,0,Wunderground v.1.15,2013-10-02 08:50:00,
2013-10-02 05:00:00,56.3,51.2,29.82,South,182,0.0,0.0,83,0.00,,,0.00,0,Wunderground v.1.15,2013-10-02 09:00:00,
2013-10-02 05:06:00,56.3,51.2,29.82,South,182,0.0,0.0,83,0.00,,,0.00,0,Wunderground v.1.15,2013-10-02 09:06:00,
2013-10-02 05:15:00,56.2,50.8,29.83,South,182,0.0,0.0,82,0.00,,,0.00,0,Wunderground v.1.15,2013-10-02 09:15:00,
2013-10-02 05:25:00,56.0,50.9,29.83,South,182,0.0,0.0,83,0.00,,,0.00,0,Wunderground v.1.15,2013-10-02 09:25:00,
2013-10-02 05:35:00,56.2,51.1,29.82,South,181,0.0,0.0,83,0.00,,,0.00,0,Wunderground v.1.15,2013-10-02 09:35:00,
2013-10-02 05:40:00,56.2,51.1,29.82,South,182,0.0,0.0,83,0.00,,,0.00,0,Wunderground v.1.15,2013-10-02 09:40:00,
2013-10-02 05:50:00,56.2,51.1,29.82,South,182,0.0,0.0,83,0.00,,,0.00,0,Wunderground v.1.15,2013-10-02 09:50:00,
2013-10-02 06:00:00,56.2,51.4,29.83,South,182,0.0,0.0,84,0.00,,,0.00,0,Wunderground v.1.15,2013-10-02 10:00:00,
2013-10-02 06:06:00,56.0,51.2,29.83,South,182,0.0,2.0,84,0.00,,,0.00,0,Wunderground v.1.15,2013-10-02 10:06:00,
2013-10-02 06:15:00,55.9,51.1,29.83,South,182,0.0,0.0,84,0.00,,,0.00,0,Wunderground v.1.15,2013-10-02 10:15:00,
2013-10-02 06:25:00,55.7,50.9,29.83,South,182,0.0,0.0,84,0.00,,,0.00,0,Wunderground v.1.15,2013-10-02 10:25:00,
2013-10-02 06:35:00,55.4,51.0,29.83,South,182,0.0,0.0,85,0.00,,,0.00,0,Wunderground v.1.15,2013-10-02 10:35:00,
2013-10-02 06:45:00,55.1,50.7,29.83,South,182,0.0,0.0,85,0.00,,,0.00,0,Wunderground v.1.15,2013-10-02 10:45:00,
2013-10-02 06:55:00,54.8,50.7,29.83,South,182,0.0,0.0,86,0.00,,,0.00,0,Wunderground v.1.15,2013-10-02 10:55:00,
2013-10-02 07:10:00,54.5,50.7,29.83,South,182,0.0,1.0,87,0.00,,,0.00,9,Wunderground v.1.15,2013-10-02 11:10:00,
2013-10-02 07:20:00,54.4,50.6,29.84,South,182,0.0,0.0,87,0.00,,,0.00,14,Wunderground v.1.15,2013-10-02 11:20:00,
2013-10-02 07:30:00,54.1,50.6,29.84,South,182,0.0,0.0,88,0.00,,,0.00,18,Wunderground v.1.15,2013-10-02 11:30:00,
2013-10-02 07:40:00,53.9,50.7,29.84,South,182,0.0,0.0,89,0.00,,,0.00,23,Wunderground v.1.15,2013-10-02 11:40:00,
2013-10-02 07:50:00,53.8,50.6,29.84,South,182,0.0,0.0,89,0.00,,,0.00,28,Wunderground v.1.15,2013-10-02 11:50:00,
2013-10-02 08:00:00,53.9,50.7,29.84,South,182,0.0,0.0,89,0.00,,,0.00,33,Wunderground v.1.15,2013-10-02 12:00:00,
2013-10-02 08:10:00,54.1,51.2,29.84,South,182,0.0,0.0,90,0.00,,,0.00,39,Wunderground v.1.15,2013-10-02 12:10:00,
2013-10-02 08:20:00,54.8,52.2,29.84,South,182,0.0,0.0,91,0.00,,,0.00,46,Wunderground v.1.15,2013-10-02 12:20:00,
2013-10-02 08:30:00,55.3,52.7,29.84,South,182,0.0,0.0,91,0.00,,,0.00,53,Wunderground v.1.15,2013-10-02 12:30:00,
2013-10-02 08:35:00,55.6,53.0,29.84,South,182,0.0,0.0,91,0.00,,,0.00,54,Wunderground v.1.15,2013-10-02 12:35:00,
2013-10-02 08:45:00,56.3,53.7,29.83,South,182,0.0,0.0,91,0.00,,,0.00,62,Wunderground v.1.15,2013-10-02 12:45:00,
2013-10-02 08:55:00,57.2,54.9,29.83,South,182,0.0,0.0,92,0.00,,,0.00,69,Wunderground v.1.15,2013-10-02 12:55:00,
2013-10-02 09:06:00,58.1,55.8,29.83,South,181,0.0,0.0,92,0.00,,,0.00,76,Wunderground v.1.15,2013-10-02 13:06:00,
2013-10-02 09:15:00,58.9,56.3,29.84,South,182,0.0,0.0,91,0.00,,,0.00,86,Wunderground v.1.15,2013-10-02 13:15:00,
2013-10-02 09:20:00,59.5,56.9,29.84,SE,134,0.0,0.0,91,0.00,,,0.00,104,Wunderground v.1.15,2013-10-02 13:20:00,
2013-10-02 09:30:00,60.5,57.6,29.84,SSW,207,0.0,0.0,90,0.00,,,0.00,190,Wunderground v.1.15,2013-10-02 13:30:00,
2013-10-02 09:35:00,61.3,58.3,29.84,SSE,159,0.0,0.0,90,0.00,,,0.00,193,Wunderground v.1.15,2013-10-02 13:35:00,
2013-10-02 09:45:00,62.6,59.0,29.84,SSE,167,0.0,0.0,88,0.00,,,0.00,185,Wunderground v.1.15,2013-10-02 13:45:00,
2013-10-02 09:55:00,63.5,59.2,29.84,SSE,167,0.0,0.0,86,0.00,,,0.00,141,Wunderground v.1.15,2013-10-02 13:55:00,
2013-10-02 10:06:00,63.7,58.1,29.84,SSW,200,0.0,0.0,82,0.00,,,0.00,67,Wunderground v.1.15,2013-10-02 14:06:00,
2013-10-02 10:15:00,63.9,57.6,29.85,SSW,200,0.0,0.0,80,0.00,,,0.00,90,Wunderground v.1.15,2013-10-02 14:15:00,
2013-10-02 10:25:00,63.9,58.0,29.85,SSW,200,0.0,0.0,81,0.00,,,0.00,169,Wunderground v.1.15,2013-10-02 14:25:00,
2013-10-02 10:35:00,64.5,58.5,29.84,SSW,200,0.0,0.0,81,0.00,,,0.00,179,Wunderground v.1.15,2013-10-02 14:35:00,
2013-10-02 10:45:00,65.8,59.5,29.85,SE,138,0.0,0.0,80,0.00,,,0.00,216,Wunderground v.1.15,2013-10-02 14:45:00,
2013-10-02 10:55:00,66.4,59.0,29.85,SSE,150,0.0,0.0,77,0.00,,,0.00,258,Wunderground v.1.15,2013-10-02 14:55:00,
2013-10-02 11:10:00,67.4,59.6,29.84,SSE,150,0.0,0.0,76,0.00,,,0.00,211,Wunderground v.1.15,2013-10-02 15:10:00,
2013-10-02 11:20:00,67.4,58.8,29.85,SSE,150,0.0,0.0,74,0.00,,,0.00,216,Wunderground v.1.15,2013-10-02 15:20:00,
2013-10-02 11:25:00,67.6,59.8,29.85,SSE,150,0.0,0.0,76,0.00,,,0.00,279,Wunderground v.1.15,2013-10-02 15:25:00,
2013-10-02 11:35:00,68.1,59.9,29.84,South,181,0.0,0.0,75,0.00,,,0.00,272,Wunderground v.1.15,2013-10-02 15:35:00,
2013-10-02 11:45:00,69.6,61.3,29.84,South,175,0.0,0.0,75,0.00,,,0.00,369,Wunderground v.1.15,2013-10-02 15:45:00,
2013-10-02 11:55:00,70.6,60.7,29.84,SSE,152,0.0,0.0,71,0.00,,,0.00,355,Wunderground v.1.15,2013-10-02 15:55:00,
2013-10-02 12:10:00,71.3,61.0,29.83,South,176,0.0,0.0,70,0.00,,,0.00,376,Wunderground v.1.15,2013-10-02 16:10:00,
2013-10-02 12:20:00,71.6,60.9,29.84,SE,145,0.0,0.0,69,0.00,,,0.00,323,Wunderground v.1.15,2013-10-02 16:20:00,
2013-10-02 12:25:00,72.3,61.6,29.84,SSE,150,0.0,0.0,69,0.00,,,0.00,756,Wunderground v.1.15,2013-10-02 16:25:00,
2013-10-02 12:35:00,74.2,61.7,29.83,SSW,207,0.0,1.0,65,0.00,,,0.00,689,Wunderground v.1.15,2013-10-02 16:35:00,
2013-10-02 12:40:00,74.9,62.3,29.83,WSW,241,0.0,0.0,65,0.00,,,0.00,642,Wunderground v.1.15,2013-10-02 16:40:00,
2013-10-02 12:50:00,75.8,61.8,29.83,South,175,0.0,0.0,62,0.00,,,0.00,659,Wunderground v.1.15,2013-10-02 16:50:00,
2013-10-02 12:55:00,76.3,62.8,29.83,South,176,0.0,0.0,63,0.00,,,0.00,686,Wunderground v.1.15,2013-10-02 16:55:00,
2013-10-02 13:05:00,77.2,61.3,29.82,SSE,148,0.0,0.0,58,0.00,,,0.00,759,Wunderground v.1.15,2013-10-02 17:05:00,
2013-10-02 13:15:00,77.9,61.9,29.81,SSE,148,0.0,0.0,58,0.00,,,0.00,773,Wunderground v.1.15,2013-10-02 17:15:00,
2013-10-02 13:25:00,76.8,60.4,29.81,SE,137,1.0,1.0,57,0.00,,,0.00,257,Wunderground v.1.15,2013-10-02 17:25:00,
2013-10-02 13:35:00,77.2,62.2,29.81,SSW,205,0.0,0.0,60,0.00,,,0.00,666,Wunderground v.1.15,2013-10-02 17:35:00,
2013-10-02 13:45:00,77.9,61.9,29.80,SSW,205,0.0,0.0,58,0.00,,,0.00,708,Wunderground v.1.15,2013-10-02 17:45:00,
2013-10-02 13:50:00,78.6,61.6,29.80,SSE,167,0.0,0.0,56,0.00,,,0.00,691,Wunderground v.1.15,2013-10-02 17:50:00,
2013-10-02 13:55:00,78.8,62.3,29.80,West,260,0.0,0.0,57,0.00,,,0.00,594,Wunderground v.1.15,2013-10-02 17:55:00,
2013-10-02 14:06:00,78.5,61.5,29.80,SW,235,0.0,0.0,56,0.00,,,0.00,619,Wunderground v.1.15,2013-10-02 18:06:00,
2013-10-02 14:15:00,79.6,62.0,29.79,SSE,155,0.0,0.0,55,0.00,,,0.00,621,Wunderground v.1.15,2013-10-02 18:15:00,
2013-10-02 14:25:00,79.8,62.2,29.79,South,180,0.0,0.0,55,0.00,,,0.00,654,Wunderground v.1.15,2013-10-02 18:25:00,
2013-10-02 14:35:00,78.8,59.1,29.79,North,358,0.0,0.0,51,0.00,,,0.00,580,Wunderground v.1.15,2013-10-02 18:35:00,
2013-10-02 14:40:00,78.5,58.9,29.79,South,171,0.0,0.0,51,0.00,,,0.00,650,Wunderground v.1.15,2013-10-02 18:40:00,
2013-10-02 14:50:00,79.8,61.1,29.79,South,177,0.0,0.0,53,0.00,,,0.00,592,Wunderground v.1.15,2013-10-02 18:50:00,
2013-10-02 15:00:00,80.9,59.9,29.79,South,177,0.0,0.0,49,0.00,,,0.00,545,Wunderground v.1.15,2013-10-02 19:00:00,
2013-10-02 15:10:00,81.8,57.1,29.79,WSW,250,0.0,0.0,43,0.00,,,0.00,499,Wunderground v.1.15,2013-10-02 19:10:00,
2013-10-02 15:20:00,81.1,59.0,29.79,North,0,0.0,0.0,47,0.00,,,0.00,497,Wunderground v.1.15,2013-10-02 19:20:00,
2013-10-02 15:25:00,80.9,59.4,29.79,NNE,15,0.0,0.0,48,0.00,,,0.00,461,Wunderground v.1.15,2013-10-02 19:25:00,
2013-10-02 15:35:00,79.9,58.5,29.78,ESE,120,0.0,0.0,48,0.00,,,0.00,420,Wunderground v.1.15,2013-10-02 19:35:00,
2013-10-02 15:40:00,79.4,57.4,29.78,ESE,120,0.0,0.0,47,0.00,,,0.00,411,Wunderground v.1.15,2013-10-02 19:40:00,
2013-10-02 15:50:00,77.6,55.8,29.78,ENE,58,0.0,0.0,47,0.00,,,0.00,76,Wunderground v.1.15,2013-10-02 19:50:00,
2013-10-02 16:00:00,76.5,55.9,29.78,NW,318,0.0,0.0,49,0.00,,,0.00,63,Wunderground v.1.15,2013-10-02 20:00:00,
2013-10-02 16:10:00,75.8,55.3,29.78,SW,218,0.0,0.0,49,0.00,,,0.00,77,Wunderground v.1.15,2013-10-02 20:10:00,
2013-10-02 16:20:00,74.7,55.9,29.78,NNW,330,0.0,0.0,52,0.00,,,0.00,90,Wunderground v.1.15,2013-10-02 20:20:00,
2013-10-02 16:30:00,74.4,56.2,29.79,NNW,342,0.0,0.0,53,0.00,,,0.00,56,Wunderground v.1.15,2013-10-02 20:30:00,
2013-10-02 16:40:00,73.9,55.7,29.79,ESE,118,0.0,0.0,53,0.00,,,0.00,56,Wunderground v.1.15,2013-10-02 20:40:00,
2013-10-02 16:50:00,73.7,54.4,29.79,NW,316,0.0,0.0,51,0.00,,,0.00,47,Wunderground v.1.15,2013-10-02 20:50:00,
2013-10-02 16:55:00,73.7,57.0,29.79,NW,316,0.0,0.0,56,0.00,,,0.00,33,Wunderground v.1.15,2013-10-02 20:55:00,
2013-10-02 17:06:00,72.8,55.7,29.80,North,351,0.0,2.0,55,0.00,,,0.00,42,Wunderground v.1.15,2013-10-02 21:06:00,
2013-10-02 17:15:00,72.5,56.9,29.80,ESE,105,0.0,0.0,58,0.00,,,0.00,32,Wunderground v.1.15,2013-10-02 21:15:00,
2013-10-02 17:25:00,71.8,55.7,29.80,ENE,61,0.0,0.0,57,0.00,,,0.00,26,Wunderground v.1.15,2013-10-02 21:25:00,
2013-10-02 17:35:00,71.1,55.6,29.80,ENE,61,0.0,0.0,58,0.00,,,0.00,19,Wunderground v.1.15,2013-10-02 21:35:00,
2013-10-02 17:40:00,70.8,54.8,29.80,ENE,61,0.0,0.0,57,0.00,,,0.00,21,Wunderground v.1.15,2013-10-02 21:40:00,
2013-10-02 17:50:00,70.1,55.1,29.81,ENE,61,0.0,0.0,59,0.00,,,0.00,18,Wunderground v.1.15,2013-10-02 21:50:00,
2013-10-02 18:00:00,69.4,54.4,29.81,ENE,61,0.0,0.0,59,0.00,,,0.00,14,Wunderground v.1.15,2013-10-02 22:00:00,
2013-10-02 18:10:00,68.9,54.9,29.81,ENE,61,0.0,0.0,61,0.00,,,0.00,11,Wunderground v.1.15,2013-10-02 22:10:00,
2013-10-02 18:20:00,68.4,54.4,29.82,ENE,61,0.0,0.0,61,0.00,,,0.00,7,Wunderground v.1.15,2013-10-02 22:20:00,
2013-10-02 18:30:00,67.6,54.1,29.83,ENE,61,0.0,0.0,62,0.00,,,0.00,0,Wunderground v.1.15,2013-10-02 22:30:00,
2013-10-02 18:35:00,67.3,53.4,29.83,ENE,61,0.0,0.0,61,0.00,,,0.00,0,Wunderground v.1.15,2013-10-02 22:35:00,
2013-10-02 18:45:00,66.4,53.8,29.83,ENE,61,0.0,0.0,64,0.00,,,0.00,0,Wunderground v.1.15,2013-10-02 22:45:00,
2013-10-02 18:55:00,65.5,54.2,29.83,ENE,61,0.0,0.0,67,0.00,,,0.00,0,Wunderground v.1.15,2013-10-02 22:55:00,
2013-10-02 19:06:00,64.5,54.1,29.84,ENE,61,0.0,0.0,69,0.00,,,0.00,0,Wunderground v.1.15,2013-10-02 23:06:00,
2013-10-02 19:15:00,63.9,54.3,29.85,ENE,61,0.0,0.0,71,0.00,,,0.00,0,Wunderground v.1.15,2013-10-02 23:15:00,
2013-10-02 19:20:00,63.4,54.2,29.85,ENE,61,0.0,0.0,72,0.00,,,0.00,0,Wunderground v.1.15,2013-10-02 23:20:00,
2013-10-02 19:30:00,62.9,54.5,29.85,ENE,61,0.0,0.0,74,0.00,,,0.00,0,Wunderground v.1.15,2013-10-02 23:30:00,
2013-10-02 19:35:00,62.6,54.9,29.85,ENE,61,0.0,0.0,76,0.00,,,0.00,0,Wunderground v.1.15,2013-10-02 23:35:00,
2013-10-02 19:45:00,62.1,54.8,29.86,ENE,61,0.0,0.0,77,0.00,,,0.00,0,Wunderground v.1.15,2013-10-02 23:45:00,
2013-10-02 19:55:00,61.8,55.2,29.86,ENE,61,0.0,0.0,79,0.00,,,0.00,0,Wunderground v.1.15,2013-10-02 23:55:00,
2013-10-02 20:06:00,61.3,55.1,29.87,ENE,61,0.0,0.0,80,0.00,,,0.00,0,Wunderground v.1.15,2013-10-03 00:06:00,
2013-10-02 20:15:00,60.7,54.8,29.88,ENE,61,0.0,0.0,81,0.00,,,0.00,0,Wunderground v.1.15,2013-10-03 00:15:00,
2013-10-02 20:20:00,60.5,54.6,29.88,ENE,61,0.0,0.0,81,0.00,,,0.00,0,Wunderground v.1.15,2013-10-03 00:20:00,
2013-10-02 20:30:00,60.1,54.6,29.88,ENE,61,0.0,0.0,82,0.00,,,0.00,0,Wunderground v.1.15,2013-10-03 00:30:00,
2013-10-02 20:35:00,59.9,54.4,29.88,ENE,61,0.0,0.0,82,0.00,,,0.00,0,Wunderground v.1.15,2013-10-03 00:35:00,
2013-10-02 20:45:00,59.6,54.1,29.89,ENE,61,0.0,0.0,82,0.00,,,0.00,0,Wunderground v.1.15,2013-10-03 00:45:00,
2013-10-02 20:55:00,59.3,54.1,29.89,ENE,61,0.0,0.0,83,0.00,,,0.00,0,Wunderground v.1.15,2013-10-03 00:55:00,
2013-10-02 21:06:00,59.2,54.0,29.90,ENE,61,0.0,0.0,83,0.00,,,0.00,0,Wunderground v.1.15,2013-10-03 01:06:00,
2013-10-02 21:15:00,59.0,53.8,29.89,ENE,61,0.0,0.0,83,0.00,,,0.00,0,Wunderground v.1.15,2013-10-03 01:15:00,
2013-10-02 21:20:00,58.9,53.7,29.89,ENE,61,0.0,0.0,83,0.00,,,0.00,0,Wunderground v.1.15,2013-10-03 01:20:00,
2013-10-02 21:30:00,58.7,53.5,29.90,ENE,61,0.0,0.0,83,0.00,,,0.00,0,Wunderground v.1.15,2013-10-03 01:30:00,
2013-10-02 21:40:00,58.4,53.6,29.90,ENE,61,0.0,0.0,84,0.00,,,0.00,0,Wunderground v.1.15,2013-10-03 01:40:00,
2013-10-02 21:45:00,58.3,53.5,29.90,ENE,61,0.0,0.0,84,0.00,,,0.00,0,Wunderground v.1.15,2013-10-03 01:45:00,
2013-10-02 21:55:00,58.0,53.2,29.90,ENE,61,0.0,0.0,84,0.00,,,0.00,0,Wunderground v.1.15,2013-10-03 01:55:00,
2013-10-02 22:00:00,57.8,53.0,29.91,ENE,61,0.0,0.0,84,0.00,,,0.00,0,Wunderground v.1.15,2013-10-03 02:00:00,
2013-10-02 22:06:00,57.6,53.1,29.91,ENE,61,0.0,0.0,85,0.00,,,0.00,0,Wunderground v.1.15,2013-10-03 02:06:00,
2013-10-02 22:15:00,57.3,52.8,29.91,ENE,61,0.0,0.0,85,0.00,,,0.00,0,Wunderground v.1.15,2013-10-03 02:15:00,
2013-10-02 22:25:00,57.0,52.9,29.91,ENE,61,0.0,0.0,86,0.00,,,0.00,0,Wunderground v.1.15,2013-10-03 02:25:00,
2013-10-02 22:35:00,56.7,52.6,29.92,ENE,61,0.0,0.0,86,0.00,,,0.00,0,Wunderground v.1.15,2013-10-03 02:35:00,
2013-10-02 22:45:00,56.6,52.5,29.92,ENE,61,0.0,0.0,86,0.00,,,0.00,0,Wunderground v.1.15,2013-10-03 02:45:00,
2013-10-02 22:55:00,56.5,52.7,29.92,ENE,61,0.0,0.0,87,0.00,,,0.00,0,Wunderground v.1.15,2013-10-03 02:55:00,
2013-10-02 23:00:00,56.3,52.5,29.93,ENE,61,0.0,0.0,87,0.00,,,0.00,0,Wunderground v.1.15,2013-10-03 03:00:00,
2013-10-02 23:10:00,56.0,52.2,29.93,ENE,61,0.0,0.0,87,0.00,,,0.00,0,Wunderground v.1.15,2013-10-03 03:10:00,
2013-10-02 23:20:00,55.7,51.9,29.93,ENE,61,0.0,0.0,87,0.00,,,0.00,0,Wunderground v.1.15,2013-10-03 03:20:00,
2013-10-02 23:30:00,55.6,51.8,29.94,ENE,61,0.0,0.0,87,0.00,,,0.00,0,Wunderground v.1.15,2013-10-03 03:30:00,
2013-10-02 23:40:00,55.3,51.8,29.94,ENE,61,0.0,0.0,88,0.00,,,0.00,0,Wunderground v.1.15,2013-10-03 03:40:00,
2013-10-02 23:45:00,55.3,51.5,29.94,East,91,1.0,1.0,87,0.00,,,0.00,0,Wunderground v.1.15,2013-10-03 03:45:00,
2013-10-02 23:55:00,55.3,51.5,29.94,East,93,0.0,1.0,87,0.00,,,0.00,0,Wunderground v.1.15,2013-10-03 03:55:00,